createdAt,value
2022-08-10T00:00:21.534Z,24.05
2022-08-10T00:01:18.468Z,23.83
2022-08-10T00:02:15.330Z,24.04
2022-08-10T00:03:12.122Z,24.17
2022-08-10T00:04:08.851Z,23.61
2022-08-10T00:05:06.531Z,23.58
2022-08-10T00:06:03.291Z,24.24
2022-08-10T00:07:00.018Z,23.63
2022-08-10T00:07:56.812Z,24.40
2022-08-10T00:08:54.223Z,24.27
2022-08-10T00:09:51.420Z,24.10
2022-08-10T00:10:48.258Z,24.57
2022-08-10T00:11:44.971Z,24.79
2022-08-10T00:12:54.356Z,24.59
2022-08-10T00:13:52.057Z,23.31
2022-08-10T00:14:48.795Z,24.48
2022-08-10T00:15:53.696Z,24.00
2022-08-10T00:16:51.535Z,23.92
2022-08-10T00:17:48.694Z,23.75
2022-08-10T00:18:45.463Z,23.99
2022-08-10T00:20:03.580Z,24.34
2022-08-10T00:20:59.014Z,23.79
2022-08-10T00:21:55.720Z,24.17
2022-08-10T00:22:57.401Z,24.16
2022-08-10T00:23:54.972Z,23.54
2022-08-10T00:24:51.829Z,23.83
2022-08-10T00:25:48.573Z,23.59
2022-08-10T00:28:01.678Z,23.31
2022-08-10T00:28:04.069Z,24.20
2022-08-10T00:29:01.078Z,24.05
2022-08-10T00:29:59.410Z,24.09
2022-08-10T00:30:56.215Z,23.82
2022-08-10T00:31:58.792Z,24.46
2022-08-10T00:32:56.171Z,24.09
2022-08-10T00:33:52.928Z,24.24
2022-08-10T00:34:50.799Z,23.49
2022-08-10T00:35:47.706Z,23.69
2022-08-10T00:36:44.432Z,24.28
2022-08-10T00:37:41.205Z,24.21
2022-08-10T00:38:37.996Z,23.77
2022-08-10T00:39:36.467Z,23.69
2022-08-10T00:40:37.735Z,24.79
2022-08-10T00:41:34.883Z,24.36
2022-08-10T00:42:32.145Z,24.44
2022-08-10T00:43:28.982Z,24.65
2022-08-10T00:44:25.760Z,23.81
2022-08-10T00:45:22.551Z,24.32
2022-08-10T00:46:19.329Z,24.01
2022-08-10T00:47:35.984Z,23.15
2022-08-10T00:48:33.726Z,24.29
2022-08-10T00:49:30.546Z,24.24
2022-08-10T00:50:27.715Z,24.24
2022-08-10T00:51:40.275Z,24.35
2022-08-10T00:52:41.620Z,24.48
2022-08-10T00:53:38.494Z,23.59
2022-08-10T00:54:37.325Z,23.91
2022-08-10T00:55:34.194Z,24.35
2022-08-10T00:57:18.083Z,24.31
2022-08-10T00:58:08.682Z,24.26
2022-08-10T00:59:05.452Z,23.98
2022-08-10T01:00:03.853Z,23.40
2022-08-10T01:01:00.858Z,23.63
2022-08-10T01:02:10.936Z,23.89
2022-08-10T01:03:08.859Z,23.96
2022-08-10T01:04:54.258Z,23.39
2022-08-10T01:05:25.321Z,23.90
2022-08-10T01:06:43.675Z,23.41
2022-08-10T01:08:08.023Z,24.15
2022-08-10T01:09:23.060Z,24.34
2022-08-10T01:10:31.531Z,23.58
2022-08-10T01:12:31.408Z,24.13
2022-08-10T01:13:06.799Z,24.23
2022-08-10T01:14:16.026Z,24.00
2022-08-10T01:15:27.025Z,23.81
2022-08-10T01:16:37.557Z,23.26
2022-08-10T01:17:50.713Z,24.24
2022-08-10T01:19:13.704Z,23.46
2022-08-10T01:20:27.294Z,24.10
2022-08-10T01:22:03.787Z,24.21
2022-08-10T01:23:24.732Z,24.12
2022-08-10T01:25:13.427Z,23.95
2022-08-10T01:26:32.000Z,23.94
2022-08-10T01:27:50.175Z,22.84
2022-08-10T01:29:08.071Z,23.82
2022-08-10T01:30:14.384Z,23.71
2022-08-10T01:31:20.087Z,23.74
2022-08-10T01:32:42.229Z,23.10
2022-08-10T01:33:58.366Z,23.63
2022-08-10T01:35:09.142Z,22.99
2022-08-10T01:36:16.920Z,23.17
2022-08-10T01:37:18.427Z,23.41
2022-08-10T01:38:34.021Z,24.20
2022-08-10T01:39:43.687Z,24.07
2022-08-10T01:40:49.039Z,23.55
2022-08-10T01:41:50.763Z,23.88
2022-08-10T01:42:49.433Z,23.11
2022-08-10T01:43:58.519Z,23.37
2022-08-10T01:45:04.923Z,23.05
2022-08-10T01:46:05.752Z,23.07
2022-08-10T01:47:27.616Z,22.97
2022-08-10T01:48:32.186Z,23.06
2022-08-10T01:49:31.933Z,23.92
2022-08-10T01:50:53.213Z,23.05
2022-08-10T01:52:00.943Z,23.96
2022-08-10T01:53:11.365Z,23.56
2022-08-10T01:54:13.392Z,23.91
2022-08-10T01:55:14.055Z,21.51
2022-08-10T01:56:16.607Z,23.53
2022-08-10T01:57:17.370Z,23.74
2022-08-10T01:58:19.848Z,23.44
2022-08-10T01:59:29.125Z,23.30
2022-08-10T02:00:29.516Z,24.09
2022-08-10T02:01:30.573Z,24.08
2022-08-10T02:02:31.521Z,23.30
2022-08-10T02:03:31.895Z,23.54
2022-08-10T02:04:31.212Z,24.09
2022-08-10T02:05:31.864Z,23.72
2022-08-10T02:06:32.320Z,24.01
2022-08-10T02:07:32.906Z,23.56
2022-08-10T02:08:35.406Z,23.69
2022-08-10T02:09:36.780Z,23.65
2022-08-10T02:10:36.840Z,23.26
2022-08-10T02:12:06.406Z,22.92
2022-08-10T02:12:57.442Z,23.57
2022-08-10T02:13:58.271Z,22.76
2022-08-10T02:15:02.265Z,22.88
2022-08-10T02:16:03.024Z,22.16
2022-08-10T02:17:04.332Z,22.98
2022-08-10T02:18:05.128Z,23.35
2022-08-10T02:19:04.663Z,22.98
2022-08-10T02:20:08.965Z,23.53
2022-08-10T02:21:08.118Z,22.61
2022-08-10T02:22:35.403Z,23.74
2022-08-10T02:23:29.937Z,23.19
2022-08-10T02:24:28.721Z,23.05
2022-08-10T02:25:41.438Z,23.80
2022-08-10T02:26:44.582Z,23.43
2022-08-10T02:27:43.632Z,22.67
2022-08-10T02:28:42.883Z,23.53
2022-08-10T02:29:42.732Z,22.34
2022-08-10T02:30:48.802Z,22.94
2022-08-10T02:31:46.487Z,22.31
2022-08-10T02:32:49.610Z,23.63
2022-08-10T02:33:57.666Z,23.40
2022-08-10T02:35:00.929Z,22.25
2022-08-10T02:36:05.442Z,21.13
2022-08-10T02:37:11.163Z,21.06
2022-08-10T02:38:15.552Z,20.86
2022-08-10T02:39:16.138Z,19.81
2022-08-10T02:45:03.894Z,21.16
2022-08-10T02:45:14.170Z,21.58
2022-08-10T02:45:14.340Z,22.79
2022-08-10T02:45:24.426Z,22.09
2022-08-10T02:46:28.478Z,22.68
2022-08-10T02:47:52.737Z,21.78
2022-08-10T02:49:00.769Z,22.47
2022-08-10T02:50:35.047Z,22.55
2022-08-10T02:52:14.297Z,23.24
2022-08-10T02:53:55.841Z,23.36
2022-08-10T02:54:38.721Z,22.90
2022-08-10T02:55:48.545Z,22.36
2022-08-10T02:57:06.525Z,23.47
2022-08-10T02:58:13.431Z,22.59
2022-08-10T02:59:24.175Z,21.92
2022-08-10T03:00:23.742Z,22.72
2022-08-10T03:01:27.231Z,22.44
2022-08-10T03:02:34.466Z,23.37
2022-08-10T03:03:39.173Z,22.65
2022-08-10T03:04:55.791Z,22.80
2022-08-10T03:06:08.464Z,21.60
2022-08-10T03:07:11.877Z,21.32
2022-08-10T03:08:12.642Z,22.17
2022-08-10T03:09:15.185Z,22.33
2022-08-10T03:10:33.957Z,22.53
2022-08-10T03:12:35.994Z,22.42
2022-08-10T03:12:56.365Z,21.96
2022-08-10T03:13:59.904Z,22.04
2022-08-10T03:14:57.975Z,21.93
2022-08-10T03:15:58.736Z,22.29
2022-08-10T03:16:58.393Z,22.60
2022-08-10T03:17:58.918Z,22.78
2022-08-10T03:19:00.455Z,21.83
2022-08-10T03:20:33.864Z,22.38
2022-08-10T03:21:21.280Z,21.55
2022-08-10T03:22:20.390Z,21.84
2022-08-10T03:23:21.640Z,21.68
2022-08-10T03:24:32.826Z,22.08
2022-08-10T03:25:32.003Z,23.08
2022-08-10T03:26:31.573Z,22.35
2022-08-10T03:27:30.763Z,23.01
2022-08-10T03:28:30.311Z,23.17
2022-08-10T03:29:29.111Z,22.39
2022-08-10T03:30:33.518Z,22.40
2022-08-10T03:31:33.027Z,23.31
2022-08-10T03:32:33.054Z,23.46
2022-08-10T03:33:33.515Z,22.62
2022-08-10T03:34:32.807Z,22.82
2022-08-10T03:35:30.643Z,22.24
2022-08-10T03:36:40.225Z,22.58
2022-08-10T03:37:39.552Z,23.03
2022-08-10T03:38:36.987Z,21.81
2022-08-10T03:39:33.953Z,22.55
2022-08-10T03:40:45.326Z,22.30
2022-08-10T03:42:05.988Z,22.38
2022-08-10T03:43:08.234Z,21.55
2022-08-10T03:44:08.070Z,21.70
2022-08-10T03:45:07.634Z,21.95
2022-08-10T03:46:09.836Z,23.02
2022-08-10T03:47:16.477Z,23.11
2022-08-10T03:48:16.634Z,22.69
2022-08-10T03:49:14.897Z,22.75
2022-08-10T03:50:27.906Z,22.74
2022-08-10T03:51:32.220Z,22.09
2022-08-10T03:52:30.214Z,22.72
2022-08-10T03:54:03.536Z,23.11
2022-08-10T03:54:46.048Z,22.41
2022-08-10T03:56:28.003Z,22.49
2022-08-10T03:57:00.393Z,21.51
2022-08-10T03:57:57.378Z,21.59
2022-08-10T03:58:54.414Z,21.11
2022-08-10T03:59:51.450Z,21.80
2022-08-10T04:00:51.244Z,22.12
2022-08-10T04:02:44.421Z,22.22
2022-08-10T04:03:09.283Z,22.08
2022-08-10T04:04:11.786Z,21.53
2022-08-10T04:05:11.406Z,22.39
2022-08-10T04:06:10.887Z,22.93
2022-08-10T04:07:08.371Z,22.38
2022-08-10T04:08:05.911Z,22.54
2022-08-10T04:09:05.491Z,21.92
2022-08-10T04:10:02.267Z,22.07
2022-08-10T04:10:59.940Z,22.39
2022-08-10T04:11:56.792Z,22.03
2022-08-10T04:12:53.561Z,22.48
2022-08-10T04:13:55.720Z,22.87
2022-08-10T04:14:53.565Z,22.76
2022-08-10T04:15:50.758Z,22.42
2022-08-10T04:16:48.092Z,22.04
2022-08-10T04:18:00.185Z,22.29
2022-08-10T04:19:03.463Z,21.48
2022-08-10T04:20:02.205Z,22.42
2022-08-10T04:21:11.456Z,22.33
2022-08-10T04:22:18.029Z,22.08
2022-08-10T04:23:21.119Z,21.64
2022-08-10T04:24:26.773Z,22.49
2022-08-10T04:25:31.241Z,22.81
2022-08-10T04:26:28.573Z,22.41
2022-08-10T04:27:26.602Z,23.06
2022-08-10T04:28:26.202Z,22.98
2022-08-10T04:29:23.186Z,22.93
2022-08-10T04:30:20.306Z,23.15
2022-08-10T04:31:20.227Z,22.56
2022-08-10T04:32:20.921Z,22.57
2022-08-10T04:33:22.741Z,23.01
2022-08-10T04:34:20.914Z,22.81
2022-08-10T04:35:20.898Z,22.72
2022-08-10T04:36:20.930Z,22.56
2022-08-10T04:37:22.193Z,23.38
2022-08-10T04:38:19.507Z,22.75
2022-08-10T04:39:17.726Z,22.93
2022-08-10T04:40:25.268Z,22.63
2022-08-10T04:41:28.751Z,22.81
2022-08-10T04:42:25.822Z,23.13
2022-08-10T04:43:22.706Z,22.14
2022-08-10T04:44:19.451Z,23.06
2022-08-10T04:45:16.574Z,23.21
2022-08-10T04:46:42.856Z,23.40
2022-08-10T04:47:57.703Z,22.54
2022-08-10T04:49:01.720Z,23.29
2022-08-10T04:49:58.946Z,22.29
2022-08-10T04:50:56.882Z,22.09
2022-08-10T04:51:56.424Z,22.87
2022-08-10T04:52:53.422Z,22.44
2022-08-10T04:54:03.156Z,22.95
2022-08-10T04:55:03.676Z,22.88
2022-08-10T04:56:00.486Z,23.28
2022-08-10T04:56:57.239Z,22.72
2022-08-10T04:57:54.026Z,23.27
2022-08-10T04:58:50.808Z,21.92
2022-08-10T04:59:48.806Z,22.67
2022-08-10T05:00:45.612Z,23.65
2022-08-10T05:02:21.590Z,23.00
2022-08-10T05:02:59.374Z,22.58
2022-08-10T05:04:35.056Z,22.51
2022-08-10T05:05:12.938Z,22.27
2022-08-10T05:06:09.809Z,22.20
2022-08-10T05:07:08.284Z,23.14
2022-08-10T05:08:05.153Z,22.98
2022-08-10T05:09:01.942Z,23.37
2022-08-10T05:10:02.782Z,22.56
2022-08-10T05:11:02.728Z,23.04
2022-08-10T05:11:59.511Z,23.13
2022-08-10T05:12:56.439Z,22.90
2022-08-10T05:13:53.219Z,22.98
2022-08-10T05:14:51.969Z,22.47
2022-08-10T05:17:05.473Z,23.26
2022-08-10T05:18:09.236Z,22.48
2022-08-10T05:19:07.974Z,22.99
2022-08-10T05:20:07.998Z,22.76
2022-08-10T05:21:05.378Z,22.13
2022-08-10T05:22:04.636Z,22.57
2022-08-10T05:23:01.960Z,22.60
2022-08-10T05:24:04.478Z,22.97
2022-08-10T05:25:01.267Z,22.53
2022-08-10T05:25:57.986Z,21.90
2022-08-10T05:27:09.159Z,22.44
2022-08-10T05:28:06.984Z,22.63
2022-08-10T05:29:04.078Z,22.53
2022-08-10T05:30:03.135Z,22.44
2022-08-10T05:31:00.583Z,23.07
2022-08-10T05:31:57.538Z,22.81
2022-08-10T05:32:56.301Z,23.13
2022-08-10T05:33:56.439Z,22.45
2022-08-10T05:34:53.188Z,23.40
2022-08-10T05:35:55.161Z,22.65
2022-08-10T05:36:55.438Z,23.06
2022-08-10T05:38:11.978Z,22.95
2022-08-10T05:39:12.487Z,22.53
2022-08-10T05:40:09.860Z,22.64
2022-08-10T05:41:07.153Z,22.48
2022-08-10T05:42:04.234Z,22.22
2022-08-10T05:43:01.094Z,22.58
2022-08-10T05:43:58.542Z,22.63
2022-08-10T05:44:55.751Z,23.19
2022-08-10T05:46:18.543Z,23.31
2022-08-10T05:47:12.644Z,22.32
2022-08-10T05:48:55.192Z,23.04
2022-08-10T05:49:26.674Z,23.00
2022-08-10T05:50:31.028Z,22.41
2022-08-10T05:51:30.268Z,23.29
2022-08-10T05:52:27.224Z,23.38
2022-08-10T05:54:02.723Z,23.47
2022-08-10T05:54:41.155Z,22.49
2022-08-10T05:55:38.196Z,22.53
2022-08-10T05:56:54.041Z,22.75
2022-08-10T05:57:54.143Z,22.58
2022-08-10T05:58:51.080Z,23.62
2022-08-10T06:00:35.088Z,23.68
2022-08-10T06:01:15.183Z,23.78
2022-08-10T06:02:31.648Z,23.25
2022-08-10T06:03:43.573Z,24.14
2022-08-10T06:04:44.422Z,22.97
2022-08-10T06:05:44.603Z,23.22
2022-08-10T06:06:47.644Z,22.80
2022-08-10T06:08:10.093Z,22.89
2022-08-10T06:09:08.876Z,23.45
2022-08-10T06:10:10.420Z,23.83
2022-08-10T06:12:26.364Z,23.10
2022-08-10T06:12:30.964Z,23.64
2022-08-10T06:13:57.969Z,23.87
2022-08-10T06:15:21.618Z,23.60
2022-08-10T06:16:20.234Z,22.97
2022-08-10T06:17:19.771Z,23.93
2022-08-10T06:18:19.019Z,23.68
2022-08-10T06:19:17.239Z,23.95
2022-08-10T06:20:14.459Z,23.48
2022-08-10T06:21:12.090Z,23.75
2022-08-10T06:22:10.339Z,23.55
2022-08-10T06:23:07.643Z,23.32
2022-08-10T06:24:07.317Z,24.11
2022-08-10T06:25:38.210Z,23.74
2022-08-10T06:26:22.428Z,24.32
2022-08-10T06:27:19.356Z,24.68
2022-08-10T06:28:37.689Z,24.35
2022-08-10T06:29:37.939Z,24.01
2022-08-10T06:30:37.245Z,23.76
2022-08-10T06:31:47.772Z,24.11
2022-08-10T06:32:46.924Z,23.73
2022-08-10T06:33:46.007Z,23.61
2022-08-10T06:34:48.073Z,23.15
2022-08-10T06:35:46.473Z,23.89
2022-08-10T06:36:46.363Z,24.33
2022-08-10T06:37:50.688Z,23.90
2022-08-10T06:38:51.870Z,23.84
2022-08-10T06:39:49.088Z,23.76
2022-08-10T06:40:48.406Z,23.48
2022-08-10T06:41:57.834Z,23.22
2022-08-10T06:43:13.468Z,24.24
2022-08-10T06:44:19.491Z,23.63
2022-08-10T06:45:23.339Z,23.61
2022-08-10T06:46:23.361Z,23.88
2022-08-10T06:47:26.837Z,24.43
2022-08-10T06:48:39.031Z,24.36
2022-08-10T06:49:38.729Z,24.09
2022-08-10T06:50:56.265Z,23.58
2022-08-10T06:51:58.754Z,24.24
2022-08-10T06:52:57.347Z,24.81
2022-08-10T06:53:59.512Z,24.73
2022-08-10T06:54:58.810Z,24.33
2022-08-10T06:56:06.706Z,25.04
2022-08-10T06:57:17.898Z,24.23
2022-08-10T06:58:20.708Z,24.57
2022-08-10T06:59:36.920Z,24.80
2022-08-10T07:00:41.371Z,24.93
2022-08-10T07:01:41.696Z,24.58
2022-08-10T07:02:56.137Z,24.02
2022-08-10T07:04:02.474Z,24.20
2022-08-10T07:05:02.275Z,24.77
2022-08-10T07:06:01.795Z,24.63
2022-08-10T07:07:03.081Z,25.35
2022-08-10T07:08:02.143Z,23.75
2022-08-10T07:09:01.940Z,25.18
2022-08-10T07:10:00.414Z,24.69
2022-08-10T07:10:57.990Z,24.48
2022-08-10T07:11:58.371Z,24.76
2022-08-10T07:13:06.672Z,24.41
2022-08-10T07:14:14.113Z,24.98
2022-08-10T07:15:17.306Z,25.24
2022-08-10T07:16:16.730Z,24.77
2022-08-10T07:17:19.159Z,24.85
2022-08-10T07:18:20.621Z,25.15
2022-08-10T07:19:19.570Z,24.75
2022-08-10T07:20:21.447Z,25.05
2022-08-10T07:21:19.685Z,24.44
2022-08-10T07:23:22.732Z,25.36
2022-08-10T07:23:58.339Z,25.07
2022-08-10T07:24:58.110Z,24.52
2022-08-10T07:25:58.426Z,25.16
2022-08-10T07:26:58.660Z,25.31
2022-08-10T07:27:59.668Z,24.75
2022-08-10T07:29:00.574Z,24.90
2022-08-10T07:30:00.612Z,25.16
2022-08-10T07:30:58.247Z,25.15
2022-08-10T07:31:57.791Z,25.54
2022-08-10T07:32:56.861Z,25.65
2022-08-10T07:33:56.213Z,24.85
2022-08-10T07:34:56.099Z,24.98
2022-08-10T07:35:55.476Z,25.75
2022-08-10T07:36:53.786Z,25.63
2022-08-10T07:37:54.384Z,25.21
2022-08-10T07:38:55.682Z,25.59
2022-08-10T07:40:02.970Z,25.08
2022-08-10T07:41:03.535Z,25.61
2022-08-10T07:42:03.467Z,25.41
2022-08-10T07:43:02.524Z,25.75
2022-08-10T07:44:04.303Z,24.78
2022-08-10T07:45:03.223Z,24.84
2022-08-10T07:46:05.417Z,25.66
2022-08-10T07:47:13.611Z,26.01
2022-08-10T07:48:16.918Z,25.31
2022-08-10T07:49:26.466Z,25.59
2022-08-10T07:50:25.980Z,25.65
2022-08-10T07:51:23.949Z,24.95
2022-08-10T07:52:23.422Z,25.72
2022-08-10T07:53:26.413Z,25.69
2022-08-10T07:54:26.367Z,25.70
2022-08-10T07:56:03.751Z,25.89
2022-08-10T07:56:48.969Z,25.50
2022-08-10T07:57:52.401Z,25.28
2022-08-10T07:58:57.993Z,25.97
2022-08-10T08:00:01.663Z,26.12
2022-08-10T08:01:01.408Z,25.94
2022-08-10T08:02:02.289Z,25.77
2022-08-10T08:03:02.363Z,25.99
2022-08-10T08:04:06.056Z,26.10
2022-08-10T08:05:12.207Z,26.09
2022-08-10T08:06:33.097Z,25.80
2022-08-10T08:07:32.514Z,26.04
2022-08-10T08:08:32.571Z,25.68
2022-08-10T08:09:31.702Z,25.85
2022-08-10T08:10:30.068Z,25.31
2022-08-10T08:11:29.471Z,25.35
2022-08-10T08:12:28.046Z,25.95
2022-08-10T08:13:26.773Z,25.17
2022-08-10T08:14:26.444Z,25.99
2022-08-10T08:16:18.438Z,25.94
2022-08-10T08:16:47.560Z,26.19
2022-08-10T08:17:47.402Z,26.30
2022-08-10T08:19:26.324Z,25.86
2022-08-10T08:20:17.242Z,26.24
2022-08-10T08:24:09.318Z,26.49
2022-08-10T08:24:09.976Z,26.08
2022-08-10T08:24:14.656Z,27.00
2022-08-10T08:25:14.368Z,27.21
2022-08-10T08:26:12.491Z,26.66
2022-08-10T08:27:16.910Z,26.94
2022-08-10T08:28:15.866Z,26.42
2022-08-10T08:29:13.737Z,26.82
2022-08-10T08:30:12.201Z,26.99
2022-08-10T08:31:11.112Z,27.39
2022-08-10T08:32:09.693Z,26.49
2022-08-10T08:33:12.717Z,27.01
2022-08-10T08:34:34.440Z,27.18
2022-08-10T08:35:33.124Z,27.26
2022-08-10T08:36:31.318Z,26.77
2022-08-10T08:38:33.561Z,26.67
2022-08-10T08:38:51.386Z,26.67
2022-08-10T08:39:49.981Z,26.49
2022-08-10T08:41:07.843Z,26.02
2022-08-10T08:42:29.248Z,26.37
2022-08-10T08:43:38.091Z,26.65
2022-08-10T08:44:49.199Z,26.51
2022-08-10T08:46:13.922Z,26.43
2022-08-10T08:48:05.826Z,26.59
2022-08-10T08:48:48.422Z,26.71
2022-08-10T08:50:10.229Z,26.89
2022-08-10T08:52:09.871Z,27.19
2022-08-10T08:53:21.976Z,26.76
2022-08-10T08:54:19.298Z,27.49
2022-08-10T08:56:03.611Z,27.31
2022-08-10T08:57:50.401Z,27.44
2022-08-10T08:58:50.679Z,27.32
2022-08-10T09:00:12.599Z,27.60
2022-08-10T09:01:23.708Z,27.41
2022-08-10T09:02:54.449Z,27.37
2022-08-10T09:04:21.263Z,26.74
2022-08-10T09:05:59.835Z,27.56
2022-08-10T09:07:59.653Z,27.83
2022-08-10T09:08:41.527Z,28.03
2022-08-10T09:09:55.768Z,27.88
2022-08-10T09:11:04.533Z,27.62
2022-08-10T09:12:08.824Z,27.70
2022-08-10T09:13:08.456Z,27.91
2022-08-10T09:14:25.550Z,27.05
2022-08-10T09:15:49.817Z,27.82
2022-08-10T09:17:04.336Z,27.06
2022-08-10T09:18:07.665Z,27.44
2022-08-10T09:19:19.791Z,27.23
2022-08-10T09:20:51.003Z,27.57
2022-08-10T09:22:21.727Z,27.52
2022-08-10T09:24:04.723Z,27.67
2022-08-10T09:25:14.468Z,27.78
2022-08-10T09:26:22.776Z,27.76
2022-08-10T09:27:22.781Z,27.47
2022-08-10T09:28:27.047Z,27.31
2022-08-10T09:29:28.075Z,27.63
2022-08-10T09:31:18.810Z,27.55
2022-08-10T09:36:16.061Z,27.82
2022-08-10T09:36:20.906Z,27.62
2022-08-10T09:36:26.172Z,27.69
2022-08-10T09:37:24.433Z,27.46
2022-08-10T09:39:02.901Z,27.94
2022-08-10T09:41:01.101Z,27.95
2022-08-10T09:41:45.289Z,27.67
2022-08-10T09:43:25.399Z,27.77
2022-08-10T09:44:57.119Z,27.54
2022-08-10T09:45:55.868Z,27.71
2022-08-10T09:46:58.963Z,27.70
2022-08-10T09:48:41.741Z,27.21
2022-08-10T09:50:04.922Z,28.09
2022-08-10T09:52:41.046Z,27.59
2022-08-10T09:54:15.756Z,27.52
2022-08-10T09:56:17.325Z,27.60
2022-08-10T09:57:46.521Z,28.28
2022-08-10T09:59:29.110Z,28.05
2022-08-10T10:00:23.386Z,27.79
2022-08-10T10:02:02.776Z,28.19
2022-08-10T10:03:35.960Z,28.17
2022-08-10T10:04:53.053Z,28.18
2022-08-10T10:06:04.988Z,27.93
2022-08-10T10:07:08.190Z,27.94
2022-08-10T10:08:42.681Z,28.06
2022-08-10T10:09:45.558Z,27.82
2022-08-10T10:11:09.721Z,27.81
2022-08-10T10:12:44.982Z,27.77
2022-08-10T10:14:02.971Z,28.44
2022-08-10T10:15:25.842Z,28.03
2022-08-10T10:16:38.624Z,27.58
2022-08-10T10:18:03.134Z,28.24
2022-08-10T10:19:15.451Z,28.18
2022-08-10T10:20:31.881Z,28.20
2022-08-10T10:21:53.948Z,27.45
2022-08-10T10:24:15.575Z,27.94
2022-08-10T10:25:21.002Z,28.14
2022-08-10T10:26:57.740Z,27.77
2022-08-10T10:28:13.411Z,28.07
2022-08-10T10:29:57.450Z,27.86
2022-08-10T10:31:16.325Z,28.15
2022-08-10T10:32:38.516Z,28.15
2022-08-10T10:33:46.654Z,28.17
2022-08-10T10:34:53.963Z,27.45
2022-08-10T10:35:55.876Z,27.44
2022-08-10T10:36:54.997Z,27.67
2022-08-10T10:38:01.295Z,27.89
2022-08-10T10:39:02.502Z,27.78
2022-08-10T10:40:03.921Z,27.72
2022-08-10T10:41:28.635Z,27.51
2022-08-10T10:42:45.555Z,27.81
2022-08-10T10:43:56.310Z,28.05
2022-08-10T10:45:21.583Z,27.69
2022-08-10T10:46:42.758Z,27.61
2022-08-10T10:48:00.962Z,27.67
2022-08-10T10:49:24.710Z,27.70
2022-08-10T10:50:34.869Z,27.34
2022-08-10T10:51:51.554Z,27.06
2022-08-10T10:53:04.032Z,27.44
2022-08-10T10:54:13.299Z,27.46
2022-08-10T10:55:10.378Z,27.42
2022-08-10T10:56:14.219Z,27.37
2022-08-10T10:57:18.391Z,27.62
2022-08-10T10:58:29.909Z,27.99
2022-08-10T10:59:56.291Z,28.10
2022-08-10T11:01:02.091Z,27.93
2022-08-10T11:02:21.654Z,27.60
2022-08-10T11:04:01.319Z,27.45
2022-08-10T11:05:16.450Z,27.46
2022-08-10T11:06:45.867Z,27.66
2022-08-10T11:07:53.462Z,27.67
2022-08-10T11:10:04.587Z,27.58
2022-08-10T11:10:47.348Z,27.59
2022-08-10T11:12:00.359Z,27.61
2022-08-10T11:14:24.598Z,27.02
2022-08-10T11:14:48.484Z,27.58
2022-08-10T11:15:59.618Z,27.56
2022-08-10T11:17:11.456Z,27.67
2022-08-10T11:19:05.314Z,27.32
2022-08-10T11:20:26.643Z,27.37
2022-08-10T11:21:50.974Z,27.77
2022-08-10T11:23:04.145Z,27.60
2022-08-10T11:24:48.229Z,27.55
2022-08-10T11:25:54.206Z,27.72
2022-08-10T11:27:08.444Z,27.90
2022-08-10T11:28:16.278Z,28.20
2022-08-10T11:29:45.799Z,28.20
2022-08-10T11:31:02.005Z,27.90
2022-08-10T11:32:20.599Z,27.26
2022-08-10T11:33:46.679Z,27.77
2022-08-10T11:35:18.662Z,27.69
2022-08-10T11:36:18.409Z,27.69
2022-08-10T11:37:27.341Z,27.72
2022-08-10T11:39:13.396Z,27.62
2022-08-10T11:40:26.415Z,27.45
2022-08-10T11:42:09.838Z,27.45
2022-08-10T11:43:36.169Z,27.43
2022-08-10T11:44:57.226Z,27.47
2022-08-10T11:46:16.503Z,27.20
2022-08-10T11:47:25.667Z,27.03
2022-08-10T11:48:53.318Z,27.44
2022-08-10T11:50:20.812Z,27.68
2022-08-10T11:51:26.804Z,27.48
2022-08-10T11:52:53.285Z,27.77
2022-08-10T11:53:52.637Z,27.85
2022-08-10T11:54:55.130Z,27.50
2022-08-10T11:55:57.689Z,27.30
2022-08-10T11:57:02.511Z,26.42
2022-08-10T11:58:31.064Z,27.14
2022-08-10T11:59:58.308Z,27.26
2022-08-10T12:01:02.208Z,26.82
2022-08-10T12:02:00.289Z,26.99
2022-08-10T12:03:02.789Z,27.22
2022-08-10T12:04:12.101Z,27.32
2022-08-10T12:05:24.143Z,27.08
2022-08-10T12:06:55.036Z,25.99
2022-08-10T12:10:02.499Z,26.97
2022-08-10T12:10:10.083Z,26.95
2022-08-10T12:10:51.788Z,26.44
2022-08-10T12:11:50.341Z,26.41
2022-08-10T12:12:55.880Z,26.49
2022-08-10T12:14:24.331Z,25.56
2022-08-10T12:15:36.945Z,25.67
2022-08-10T12:16:40.175Z,24.75
2022-08-10T12:17:51.003Z,25.13
2022-08-10T12:19:05.717Z,25.50
2022-08-10T12:20:10.847Z,25.41
2022-08-10T12:21:21.752Z,25.26
2022-08-10T12:22:31.625Z,24.80
2022-08-10T12:24:02.431Z,24.77
2022-08-10T12:25:07.443Z,24.90
2022-08-10T12:26:08.556Z,24.66
2022-08-10T12:27:13.276Z,24.60
2022-08-10T12:28:22.046Z,24.58
2022-08-10T12:30:07.822Z,24.88
2022-08-10T12:31:10.434Z,24.74
2022-08-10T12:32:17.902Z,24.55
2022-08-10T12:34:02.010Z,24.38
2022-08-10T12:35:11.875Z,24.59
2022-08-10T12:36:23.412Z,24.59
2022-08-10T12:37:31.467Z,24.40
2022-08-10T12:38:46.895Z,24.78
2022-08-10T12:40:12.012Z,24.42
2022-08-10T12:41:43.774Z,24.54
2022-08-10T12:42:45.027Z,24.35
2022-08-10T12:44:11.774Z,24.20
2022-08-10T12:45:33.096Z,24.31
2022-08-10T12:46:41.762Z,23.81
2022-08-10T12:48:01.721Z,24.08
2022-08-10T12:49:29.329Z,23.95
2022-08-10T12:50:38.596Z,24.10
2022-08-10T12:51:49.471Z,24.10
2022-08-10T12:53:06.375Z,23.72
2022-08-10T12:54:14.255Z,24.34
2022-08-10T12:55:12.806Z,24.05
2022-08-10T12:56:10.049Z,24.12
2022-08-10T12:57:16.191Z,24.34
2022-08-10T12:58:59.078Z,24.29
2022-08-10T12:59:43.356Z,24.23
2022-08-10T13:01:05.751Z,24.09
2022-08-10T13:02:06.919Z,24.28
2022-08-10T13:03:09.632Z,24.44
2022-08-10T13:04:16.300Z,24.36
2022-08-10T13:05:21.624Z,24.50
2022-08-10T13:06:21.372Z,24.54
2022-08-10T13:08:27.159Z,24.52
2022-08-10T13:09:25.781Z,24.22
2022-08-10T13:10:23.173Z,24.56
2022-08-10T13:12:38.549Z,24.69
2022-08-10T13:12:54.256Z,23.80
2022-08-10T13:13:56.364Z,24.45
2022-08-10T13:15:45.919Z,24.45
2022-08-10T13:16:31.640Z,24.47
2022-08-10T13:17:39.678Z,24.27
2022-08-10T13:18:41.606Z,23.87
2022-08-10T13:19:56.597Z,24.25
2022-08-10T13:21:04.481Z,24.31
2022-08-10T13:22:20.713Z,24.08
2022-08-10T13:24:01.250Z,24.55
2022-08-10T13:25:03.894Z,24.06
2022-08-10T13:26:04.635Z,24.61
2022-08-10T13:27:26.739Z,24.52
2022-08-10T13:28:45.592Z,24.57
2022-08-10T13:29:52.840Z,23.98
2022-08-10T13:30:52.067Z,24.51
2022-08-10T13:32:04.285Z,24.41
2022-08-10T13:33:10.641Z,24.02
2022-08-10T13:34:43.028Z,24.42
2022-08-10T13:35:45.892Z,24.58
2022-08-10T13:36:47.550Z,24.87
2022-08-10T13:37:46.845Z,24.84
2022-08-10T13:38:48.736Z,24.69
2022-08-10T13:39:59.008Z,24.79
2022-08-10T13:40:58.774Z,24.79
2022-08-10T13:41:56.774Z,24.91
2022-08-10T13:42:58.522Z,24.89
2022-08-10T13:43:59.355Z,24.95
2022-08-10T13:46:22.685Z,25.17
2022-08-10T13:47:31.037Z,24.94
2022-08-10T13:48:46.888Z,24.99
2022-08-10T13:49:46.698Z,25.01
2022-08-10T13:50:46.847Z,24.79
2022-08-10T13:51:57.111Z,24.82
2022-08-10T13:52:57.754Z,25.17
2022-08-10T13:53:59.507Z,25.00
2022-08-10T13:55:00.679Z,25.03
2022-08-10T13:56:00.114Z,24.46
2022-08-10T13:56:59.170Z,25.29
2022-08-10T13:58:01.049Z,24.47
2022-08-10T13:58:59.747Z,24.85
2022-08-10T14:00:34.760Z,25.08
2022-08-10T14:01:24.017Z,24.94
2022-08-10T14:02:28.538Z,25.02
2022-08-10T14:03:28.560Z,25.08
2022-08-10T14:04:25.322Z,25.06
2022-08-10T14:05:30.200Z,25.10
2022-08-10T14:06:30.075Z,25.22
2022-08-10T14:07:28.755Z,25.18
2022-08-10T14:08:30.059Z,24.87
2022-08-10T14:09:33.800Z,24.78
2022-08-10T14:11:01.683Z,24.92
2022-08-10T14:12:02.213Z,25.00
2022-08-10T14:13:03.519Z,25.05
2022-08-10T14:14:21.177Z,24.75
2022-08-10T14:15:28.894Z,24.67
2022-08-10T14:16:26.990Z,24.50
2022-08-10T14:17:26.409Z,24.58
2022-08-10T14:18:25.666Z,24.32
2022-08-10T14:19:30.705Z,24.47
2022-08-10T14:20:36.518Z,24.26
2022-08-10T14:21:39.802Z,24.58
2022-08-10T14:22:37.938Z,24.36
2022-08-10T14:23:42.466Z,23.75
2022-08-10T14:24:49.070Z,24.28
2022-08-10T14:26:08.917Z,24.26
2022-08-10T14:27:10.281Z,24.26
2022-08-10T14:28:07.544Z,24.22
2022-08-10T14:29:06.619Z,24.59
2022-08-10T14:30:06.105Z,23.20
2022-08-10T14:31:06.618Z,24.40
2022-08-10T14:32:09.430Z,24.46
2022-08-10T14:33:09.071Z,24.25
2022-08-10T14:34:12.203Z,24.21
2022-08-10T14:36:21.179Z,23.92
2022-08-10T14:36:53.660Z,24.00
2022-08-10T14:37:56.055Z,23.86